sensor_id;sensor_type;location;lat;lon;timestamp;P1;durP1;ratioP1;P2;durP2;ratioP2
15474;SDS011;7839;50.462;9.678;2024-01-16T00:05:01;1.10;;;1.00;;
15474;SDS011;7839;50.462;9.678;2024-01-16T00:11:43;1.93;;;1.13;;
15474;SDS011;7839;50.462;9.678;2024-01-16T00:18:23;2.53;;;1.33;;
15474;SDS011;7839;50.462;9.678;2024-01-16T00:25:03;2.77;;;1.77;;
15474;SDS011;7839;50.462;9.678;2024-01-16T00:31:44;1.07;;;0.97;;
15474;SDS011;7839;50.462;9.678;2024-01-16T00:38:24;2.17;;;0.80;;
15474;SDS011;7839;50.462;9.678;2024-01-16T00:45:04;2.10;;;1.27;;
15474;SDS011;7839;50.462;9.678;2024-01-16T00:51:44;2.50;;;0.85;;
15474;SDS011;7839;50.462;9.678;2024-01-16T00:58:24;1.10;;;0.87;;
15474;SDS011;7839;50.462;9.678;2024-01-16T01:05:05;2.15;;;1.02;;
15474;SDS011;7839;50.462;9.678;2024-01-16T01:11:46;1.93;;;1.13;;
15474;SDS011;7839;50.462;9.678;2024-01-16T01:18:26;3.53;;;1.30;;
15474;SDS011;7839;50.462;9.678;2024-01-16T01:25:07;2.00;;;0.90;;
15474;SDS011;7839;50.462;9.678;2024-01-16T01:31:47;1.37;;;1.00;;
15474;SDS011;7839;50.462;9.678;2024-01-16T01:38:27;3.23;;;1.10;;
15474;SDS011;7839;50.462;9.678;2024-01-16T01:45:09;3.07;;;1.10;;
15474;SDS011;7839;50.462;9.678;2024-01-16T01:51:49;1.13;;;0.60;;
15474;SDS011;7839;50.462;9.678;2024-01-16T01:58:29;2.33;;;0.97;;
15474;SDS011;7839;50.462;9.678;2024-01-16T02:05:09;1.87;;;1.00;;
15474;SDS011;7839;50.462;9.678;2024-01-16T02:11:50;2.53;;;0.87;;
15474;SDS011;7839;50.462;9.678;2024-01-16T02:18:30;1.13;;;0.87;;
15474;SDS011;7839;50.462;9.678;2024-01-16T02:25:10;1.48;;;1.00;;
15474;SDS011;7839;50.462;9.678;2024-01-16T02:31:51;1.17;;;0.70;;
15474;SDS011;7839;50.462;9.678;2024-01-16T02:38:31;3.73;;;1.37;;
15474;SDS011;7839;50.462;9.678;2024-01-16T02:45:11;3.00;;;0.90;;
15474;SDS011;7839;50.462;9.678;2024-01-16T02:51:52;0.83;;;0.83;;
15474;SDS011;7839;50.462;9.678;2024-01-16T02:58:32;1.57;;;1.17;;
15474;SDS011;7839;50.462;9.678;2024-01-16T03:05:12;2.13;;;1.10;;
15474;SDS011;7839;50.462;9.678;2024-01-16T03:11:52;2.03;;;0.90;;
15474;SDS011;7839;50.462;9.678;2024-01-16T03:18:32;2.23;;;1.03;;
15474;SDS011;7839;50.462;9.678;2024-01-16T03:25:12;1.30;;;1.03;;
15474;SDS011;7839;50.462;9.678;2024-01-16T03:31:53;1.67;;;1.10;;
15474;SDS011;7839;50.462;9.678;2024-01-16T03:38:33;2.23;;;0.90;;
15474;SDS011;7839;50.462;9.678;2024-01-16T03:45:14;2.00;;;1.53;;
15474;SDS011;7839;50.462;9.678;2024-01-16T03:51:54;1.33;;;0.93;;
15474;SDS011;7839;50.462;9.678;2024-01-16T03:58:34;2.07;;;1.00;;
15474;SDS011;7839;50.462;9.678;2024-01-16T04:05:15;1.43;;;0.90;;
15474;SDS011;7839;50.462;9.678;2024-01-16T04:11:55;1.93;;;1.30;;
15474;SDS011;7839;50.462;9.678;2024-01-16T04:18:35;1.53;;;1.17;;
15474;SDS011;7839;50.462;9.678;2024-01-16T04:25:16;2.67;;;1.30;;
15474;SDS011;7839;50.462;9.678;2024-01-16T04:31:57;1.63;;;1.30;;
15474;SDS011;7839;50.462;9.678;2024-01-16T04:38:37;1.93;;;1.50;;
15474;SDS011;7839;50.462;9.678;2024-01-16T04:45:17;1.87;;;1.20;;
15474;SDS011;7839;50.462;9.678;2024-01-16T04:51:57;1.43;;;1.20;;
15474;SDS011;7839;50.462;9.678;2024-01-16T04:58:38;2.47;;;1.67;;
15474;SDS011;7839;50.462;9.678;2024-01-16T05:05:18;2.07;;;1.33;;
15474;SDS011;7839;50.462;9.678;2024-01-16T05:11:58;1.90;;;1.20;;
15474;SDS011;7839;50.462;9.678;2024-01-16T05:18:41;3.83;;;1.80;;
15474;SDS011;7839;50.462;9.678;2024-01-16T05:25:21;2.17;;;1.40;;
15474;SDS011;7839;50.462;9.678;2024-01-16T05:32:02;1.83;;;1.67;;
15474;SDS011;7839;50.462;9.678;2024-01-16T05:38:43;2.63;;;1.47;;
15474;SDS011;7839;50.462;9.678;2024-01-16T05:45:23;3.63;;;1.80;;
15474;SDS011;7839;50.462;9.678;2024-01-16T05:52:04;2.47;;;1.60;;
15474;SDS011;7839;50.462;9.678;2024-01-16T05:58:44;2.00;;;1.87;;
15474;SDS011;7839;50.462;9.678;2024-01-16T06:05:24;2.60;;;1.90;;
15474;SDS011;7839;50.462;9.678;2024-01-16T06:12:04;3.10;;;1.57;;
15474;SDS011;7839;50.462;9.678;2024-01-16T06:18:45;1.80;;;1.53;;
15474;SDS011;7839;50.462;9.678;2024-01-16T06:25:25;2.40;;;1.70;;
15474;SDS011;7839;50.462;9.678;2024-01-16T06:32:05;1.70;;;1.27;;
15474;SDS011;7839;50.462;9.678;2024-01-16T06:38:46;2.70;;;1.70;;
15474;SDS011;7839;50.462;9.678;2024-01-16T06:45:26;2.43;;;1.57;;
15474;SDS011;7839;50.462;9.678;2024-01-16T06:52:07;2.13;;;1.50;;
15474;SDS011;7839;50.462;9.678;2024-01-16T06:58:47;1.90;;;1.70;;
15474;SDS011;7839;50.462;9.678;2024-01-16T07:05:27;1.97;;;1.50;;
15474;SDS011;7839;50.462;9.678;2024-01-16T07:12:09;1.47;;;1.37;;
15474;SDS011;7839;50.462;9.678;2024-01-16T07:18:49;1.93;;;1.40;;
15474;SDS011;7839;50.462;9.678;2024-01-16T07:25:30;1.10;;;1.10;;
15474;SDS011;7839;50.462;9.678;2024-01-16T07:32:10;1.70;;;1.17;;
15474;SDS011;7839;50.462;9.678;2024-01-16T07:38:51;2.80;;;1.63;;
15474;SDS011;7839;50.462;9.678;2024-01-16T07:45:31;2.83;;;1.40;;
15474;SDS011;7839;50.462;9.678;2024-01-16T07:52:11;2.07;;;1.07;;
15474;SDS011;7839;50.462;9.678;2024-01-16T07:58:52;1.93;;;1.37;;
15474;SDS011;7839;50.462;9.678;2024-01-16T08:05:32;3.27;;;1.80;;
15474;SDS011;7839;50.462;9.678;2024-01-16T08:12:12;2.90;;;1.50;;
15474;SDS011;7839;50.462;9.678;2024-01-16T08:18:52;1.53;;;1.43;;
15474;SDS011;7839;50.462;9.678;2024-01-16T08:25:33;2.30;;;1.33;;
15474;SDS011;7839;50.462;9.678;2024-01-16T08:32:13;3.23;;;1.70;;
15474;SDS011;7839;50.462;9.678;2024-01-16T08:38:53;2.67;;;1.60;;
15474;SDS011;7839;50.462;9.678;2024-01-16T08:45:35;2.20;;;1.57;;
15474;SDS011;7839;50.462;9.678;2024-01-16T08:52:15;2.33;;;1.73;;
15474;SDS011;7839;50.462;9.678;2024-01-16T08:58:55;3.20;;;1.80;;
15474;SDS011;7839;50.462;9.678;2024-01-16T09:05:36;2.60;;;1.70;;
15474;SDS011;7839;50.462;9.678;2024-01-16T09:12:18;2.87;;;1.93;;
15474;SDS011;7839;50.462;9.678;2024-01-16T09:18:58;2.40;;;1.93;;
15474;SDS011;7839;50.462;9.678;2024-01-16T09:25:39;2.63;;;1.90;;
15474;SDS011;7839;50.462;9.678;2024-01-16T09:32:19;1.73;;;1.43;;
15474;SDS011;7839;50.462;9.678;2024-01-16T09:38:59;2.87;;;1.83;;
15474;SDS011;7839;50.462;9.678;2024-01-16T09:45:39;2.40;;;1.90;;
15474;SDS011;7839;50.462;9.678;2024-01-16T09:52:19;2.37;;;2.17;;
15474;SDS011;7839;50.462;9.678;2024-01-16T09:59:02;2.60;;;1.77;;
15474;SDS011;7839;50.462;9.678;2024-01-16T10:05:44;3.67;;;2.10;;
15474;SDS011;7839;50.462;9.678;2024-01-16T10:12:24;4.83;;;2.80;;
15474;SDS011;7839;50.462;9.678;2024-01-16T10:19:05;3.27;;;1.87;;
15474;SDS011;7839;50.462;9.678;2024-01-16T10:25:45;2.70;;;1.97;;
15474;SDS011;7839;50.462;9.678;2024-01-16T10:32:29;2.07;;;1.70;;
15474;SDS011;7839;50.462;9.678;2024-01-16T10:39:10;1.67;;;1.40;;
15474;SDS011;7839;50.462;9.678;2024-01-16T10:45:52;1.60;;;1.50;;
15474;SDS011;7839;50.462;9.678;2024-01-16T10:52:47;3.03;;;1.63;;
15474;SDS011;7839;50.462;9.678;2024-01-16T10:59:40;2.37;;;2.10;;
15474;SDS011;7839;50.462;9.678;2024-01-16T11:06:22;2.40;;;2.03;;
15474;SDS011;7839;50.462;9.678;2024-01-16T11:13:03;1.73;;;1.63;;
15474;SDS011;7839;50.462;9.678;2024-01-16T11:19:44;3.13;;;1.50;;
15474;SDS011;7839;50.462;9.678;2024-01-16T11:26:32;2.37;;;1.70;;
15474;SDS011;7839;50.462;9.678;2024-01-16T11:47:00;2.00;;;1.50;;
15474;SDS011;7839;50.462;9.678;2024-01-16T11:53:41;1.83;;;1.67;;
15474;SDS011;7839;50.462;9.678;2024-01-16T12:00:22;3.03;;;1.67;;
15474;SDS011;7839;50.462;9.678;2024-01-16T12:07:05;1.43;;;1.33;;
15474;SDS011;7839;50.462;9.678;2024-01-16T12:14:00;3.20;;;1.57;;
15474;SDS011;7839;50.462;9.678;2024-01-16T12:20:40;1.73;;;1.43;;
15474;SDS011;7839;50.462;9.678;2024-01-16T12:27:20;1.40;;;1.30;;
15474;SDS011;7839;50.462;9.678;2024-01-16T12:34:05;1.33;;;1.13;;
15474;SDS011;7839;50.462;9.678;2024-01-16T12:40:47;1.00;;;1.00;;
15474;SDS011;7839;50.462;9.678;2024-01-16T12:47:28;1.63;;;1.30;;
15474;SDS011;7839;50.462;9.678;2024-01-16T12:54:14;1.47;;;0.97;;
15474;SDS011;7839;50.462;9.678;2024-01-16T13:00:55;1.17;;;1.10;;
15474;SDS011;7839;50.462;9.678;2024-01-16T13:07:37;1.00;;;1.00;;
15474;SDS011;7839;50.462;9.678;2024-01-16T13:14:18;2.10;;;0.97;;
15474;SDS011;7839;50.462;9.678;2024-01-16T13:21:00;1.13;;;1.03;;
15474;SDS011;7839;50.462;9.678;2024-01-16T13:27:41;0.93;;;0.80;;
15474;SDS011;7839;50.462;9.678;2024-01-16T13:34:21;1.03;;;1.00;;
15474;SDS011;7839;50.462;9.678;2024-01-16T13:41:01;1.27;;;1.00;;
15474;SDS011;7839;50.462;9.678;2024-01-16T13:47:42;1.77;;;0.80;;
15474;SDS011;7839;50.462;9.678;2024-01-16T13:54:22;1.77;;;1.17;;
15474;SDS011;7839;50.462;9.678;2024-01-16T14:01:02;1.10;;;0.90;;
15474;SDS011;7839;50.462;9.678;2024-01-16T14:07:44;2.83;;;1.07;;
15474;SDS011;7839;50.462;9.678;2024-01-16T14:14:26;2.37;;;1.10;;
15474;SDS011;7839;50.462;9.678;2024-01-16T14:21:06;1.20;;;1.10;;
15474;SDS011;7839;50.462;9.678;2024-01-16T14:27:57;2.03;;;1.30;;
15474;SDS011;7839;50.462;9.678;2024-01-16T14:34:38;1.50;;;1.40;;
15474;SDS011;7839;50.462;9.678;2024-01-16T14:41:18;1.47;;;1.20;;
15474;SDS011;7839;50.462;9.678;2024-01-16T14:47:58;0.83;;;0.83;;
15474;SDS011;7839;50.462;9.678;2024-01-16T14:54:39;2.17;;;1.13;;
15474;SDS011;7839;50.462;9.678;2024-01-16T15:01:19;1.40;;;1.00;;
15474;SDS011;7839;50.462;9.678;2024-01-16T15:08:00;1.73;;;1.23;;
15474;SDS011;7839;50.462;9.678;2024-01-16T15:14:40;1.90;;;1.30;;
15474;SDS011;7839;50.462;9.678;2024-01-16T15:21:20;1.43;;;1.20;;
15474;SDS011;7839;50.462;9.678;2024-01-16T15:28:00;1.40;;;1.27;;
15474;SDS011;7839;50.462;9.678;2024-01-16T15:34:41;1.17;;;1.07;;
15474;SDS011;7839;50.462;9.678;2024-01-16T15:41:21;2.43;;;1.47;;
15474;SDS011;7839;50.462;9.678;2024-01-16T15:48:01;1.53;;;1.30;;
15474;SDS011;7839;50.462;9.678;2024-01-16T15:54:41;2.07;;;1.50;;
15474;SDS011;7839;50.462;9.678;2024-01-16T16:01:22;1.07;;;0.97;;
15474;SDS011;7839;50.462;9.678;2024-01-16T16:08:02;1.20;;;1.07;;
15474;SDS011;7839;50.462;9.678;2024-01-16T16:14:44;1.37;;;1.00;;
15474;SDS011;7839;50.462;9.678;2024-01-16T16:21:25;1.37;;;1.10;;
15474;SDS011;7839;50.462;9.678;2024-01-16T16:28:05;1.43;;;1.23;;
15474;SDS011;7839;50.462;9.678;2024-01-16T16:34:46;1.00;;;0.97;;
15474;SDS011;7839;50.462;9.678;2024-01-16T16:41:27;1.40;;;1.27;;
15474;SDS011;7839;50.462;9.678;2024-01-16T16:48:08;2.30;;;1.43;;
15474;SDS011;7839;50.462;9.678;2024-01-16T16:54:48;2.97;;;1.50;;
15474;SDS011;7839;50.462;9.678;2024-01-16T17:01:29;2.20;;;1.33;;
15474;SDS011;7839;50.462;9.678;2024-01-16T17:08:09;2.53;;;1.90;;
15474;SDS011;7839;50.462;9.678;2024-01-16T17:14:51;2.40;;;2.20;;
15474;SDS011;7839;50.462;9.678;2024-01-16T17:21:35;2.87;;;2.33;;
15474;SDS011;7839;50.462;9.678;2024-01-16T17:28:16;3.23;;;2.43;;
15474;SDS011;7839;50.462;9.678;2024-01-16T17:34:56;3.10;;;2.40;;
15474;SDS011;7839;50.462;9.678;2024-01-16T17:41:37;3.60;;;2.53;;
15474;SDS011;7839;50.462;9.678;2024-01-16T17:48:17;3.50;;;2.30;;
15474;SDS011;7839;50.462;9.678;2024-01-16T17:54:58;3.03;;;2.20;;
15474;SDS011;7839;50.462;9.678;2024-01-16T18:01:38;2.90;;;2.20;;
15474;SDS011;7839;50.462;9.678;2024-01-16T18:08:19;2.50;;;2.30;;
15474;SDS011;7839;50.462;9.678;2024-01-16T18:14:59;2.97;;;1.73;;
15474;SDS011;7839;50.462;9.678;2024-01-16T18:21:39;2.33;;;1.57;;
15474;SDS011;7839;50.462;9.678;2024-01-16T18:28:19;2.30;;;1.30;;
15474;SDS011;7839;50.462;9.678;2024-01-16T18:35:00;2.17;;;1.53;;
15474;SDS011;7839;50.462;9.678;2024-01-16T18:41:45;2.17;;;1.43;;
15474;SDS011;7839;50.462;9.678;2024-01-16T18:48:29;1.70;;;1.60;;
15474;SDS011;7839;50.462;9.678;2024-01-16T18:55:10;1.60;;;1.20;;
15474;SDS011;7839;50.462;9.678;2024-01-16T19:01:54;2.00;;;1.43;;
15474;SDS011;7839;50.462;9.678;2024-01-16T19:08:35;2.13;;;1.80;;
15474;SDS011;7839;50.462;9.678;2024-01-16T19:15:16;1.30;;;1.17;;
15474;SDS011;7839;50.462;9.678;2024-01-16T19:21:57;1.57;;;1.47;;
15474;SDS011;7839;50.462;9.678;2024-01-16T19:28:37;1.30;;;1.10;;
15474;SDS011;7839;50.462;9.678;2024-01-16T19:35:18;2.00;;;1.53;;
15474;SDS011;7839;50.462;9.678;2024-01-16T19:41:58;1.50;;;1.20;;
15474;SDS011;7839;50.462;9.678;2024-01-16T19:48:40;1.67;;;1.57;;
15474;SDS011;7839;50.462;9.678;2024-01-16T19:55:21;1.23;;;1.13;;
15474;SDS011;7839;50.462;9.678;2024-01-16T20:02:03;1.30;;;1.20;;
15474;SDS011;7839;50.462;9.678;2024-01-16T20:08:46;1.37;;;1.27;;
15474;SDS011;7839;50.462;9.678;2024-01-16T20:15:31;1.13;;;1.00;;
15474;SDS011;7839;50.462;9.678;2024-01-16T20:22:12;1.10;;;1.00;;
15474;SDS011;7839;50.462;9.678;2024-01-16T20:28:52;0.83;;;0.80;;
15474;SDS011;7839;50.462;9.678;2024-01-16T20:35:33;1.10;;;1.07;;
15474;SDS011;7839;50.462;9.678;2024-01-16T20:42:13;0.80;;;0.80;;
15474;SDS011;7839;50.462;9.678;2024-01-16T20:48:53;1.23;;;0.77;;
15474;SDS011;7839;50.462;9.678;2024-01-16T20:55:34;0.87;;;0.80;;
15474;SDS011;7839;50.462;9.678;2024-01-16T21:02:15;1.93;;;1.00;;
15474;SDS011;7839;50.462;9.678;2024-01-16T21:08:55;2.37;;;1.10;;
15474;SDS011;7839;50.462;9.678;2024-01-16T21:15:35;0.80;;;0.80;;
15474;SDS011;7839;50.462;9.678;2024-01-16T21:22:15;1.00;;;1.00;;
15474;SDS011;7839;50.462;9.678;2024-01-16T21:28:55;1.40;;;0.83;;
15474;SDS011;7839;50.462;9.678;2024-01-16T21:35:36;0.97;;;0.83;;
15474;SDS011;7839;50.462;9.678;2024-01-16T21:42:17;1.07;;;0.97;;
15474;SDS011;7839;50.462;9.678;2024-01-16T21:48:58;0.90;;;0.90;;
15474;SDS011;7839;50.462;9.678;2024-01-16T21:55:38;1.00;;;0.80;;
15474;SDS011;7839;50.462;9.678;2024-01-16T22:02:18;1.30;;;1.00;;
15474;SDS011;7839;50.462;9.678;2024-01-16T22:08:58;0.97;;;0.93;;
15474;SDS011;7839;50.462;9.678;2024-01-16T22:15:38;1.10;;;1.00;;
15474;SDS011;7839;50.462;9.678;2024-01-16T22:22:19;0.80;;;0.80;;
15474;SDS011;7839;50.462;9.678;2024-01-16T22:28:59;2.37;;;1.07;;
15474;SDS011;7839;50.462;9.678;2024-01-16T22:35:39;1.37;;;0.87;;
15474;SDS011;7839;50.462;9.678;2024-01-16T22:42:20;0.65;;;0.60;;
15474;SDS011;7839;50.462;9.678;2024-01-16T22:49:00;1.47;;;0.80;;
15474;SDS011;7839;50.462;9.678;2024-01-16T22:55:43;0.83;;;0.83;;
15474;SDS011;7839;50.462;9.678;2024-01-16T23:02:24;0.90;;;0.90;;
15474;SDS011;7839;50.462;9.678;2024-01-16T23:09:04;1.00;;;1.00;;
15474;SDS011;7839;50.462;9.678;2024-01-16T23:15:47;0.63;;;0.63;;
15474;SDS011;7839;50.462;9.678;2024-01-16T23:22:27;1.27;;;0.63;;
15474;SDS011;7839;50.462;9.678;2024-01-16T23:29:09;0.80;;;0.70;;
15474;SDS011;7839;50.462;9.678;2024-01-16T23:35:49;0.80;;;0.60;;
15474;SDS011;7839;50.462;9.678;2024-01-16T23:42:30;0.90;;;0.70;;
15474;SDS011;7839;50.462;9.678;2024-01-16T23:49:11;1.00;;;0.90;;
15474;SDS011;7839;50.462;9.678;2024-01-16T23:55:54;0.60;;;0.60;;
